sensor_id;sensor_type;location;lat;lon;timestamp;P1;durP1;ratioP1;P2;durP2;ratioP2
4375;SDS011;2202;50.866;12.750;2023-03-12T00:01:02;7.07;;;6.47;;
4375;SDS011;2202;50.866;12.750;2023-03-12T00:03:35;8.50;;;7.23;;
4375;SDS011;2202;50.866;12.750;2023-03-12T00:06:02;8.13;;;6.80;;
4375;SDS011;2202;50.866;12.750;2023-03-12T00:08:30;10.13;;;7.00;;
4375;SDS011;2202;50.866;12.750;2023-03-12T00:10:56;7.53;;;6.80;;
4375;SDS011;2202;50.866;12.750;2023-03-12T00:13:25;7.87;;;6.13;;
4375;SDS011;2202;50.866;12.750;2023-03-12T00:15:51;16.13;;;7.73;;
4375;SDS011;2202;50.866;12.750;2023-03-12T00:18:18;7.70;;;6.20;;
4375;SDS011;2202;50.866;12.750;2023-03-12T00:20:51;8.17;;;7.10;;
4375;SDS011;2202;50.866;12.750;2023-03-12T00:23:19;9.23;;;7.30;;
4375;SDS011;2202;50.866;12.750;2023-03-12T00:25:46;11.00;;;7.20;;
4375;SDS011;2202;50.866;12.750;2023-03-12T00:28:12;8.20;;;7.47;;
4375;SDS011;2202;50.866;12.750;2023-03-12T00:30:41;7.90;;;7.00;;
4375;SDS011;2202;50.866;12.750;2023-03-12T00:33:07;7.57;;;6.90;;
4375;SDS011;2202;50.866;12.750;2023-03-12T00:35:36;7.73;;;6.90;;
4375;SDS011;2202;50.866;12.750;2023-03-12T00:38:03;7.83;;;6.10;;
4375;SDS011;2202;50.866;12.750;2023-03-12T00:40:30;7.83;;;6.93;;
4375;SDS011;2202;50.866;12.750;2023-03-12T00:42:56;8.03;;;7.17;;
4375;SDS011;2202;50.866;12.750;2023-03-12T00:45:23;10.50;;;6.97;;
4375;SDS011;2202;50.866;12.750;2023-03-12T00:47:51;7.33;;;6.70;;
4375;SDS011;2202;50.866;12.750;2023-03-12T00:50:18;7.30;;;6.60;;
4375;SDS011;2202;50.866;12.750;2023-03-12T00:52:45;8.00;;;6.73;;
4375;SDS011;2202;50.866;12.750;2023-03-12T00:55:12;7.13;;;6.40;;
4375;SDS011;2202;50.866;12.750;2023-03-12T00:57:39;6.87;;;6.27;;
4375;SDS011;2202;50.866;12.750;2023-03-12T01:00:06;7.63;;;6.60;;
4375;SDS011;2202;50.866;12.750;2023-03-12T01:02:34;7.30;;;6.30;;
4375;SDS011;2202;50.866;12.750;2023-03-12T01:05:03;8.03;;;6.83;;
4375;SDS011;2202;50.866;12.750;2023-03-12T01:07:32;6.77;;;6.10;;
4375;SDS011;2202;50.866;12.750;2023-03-12T01:10:00;6.87;;;6.27;;
4375;SDS011;2202;50.866;12.750;2023-03-12T01:12:27;7.50;;;6.77;;
4375;SDS011;2202;50.866;12.750;2023-03-12T01:14:53;6.20;;;5.60;;
4375;SDS011;2202;50.866;12.750;2023-03-12T01:17:20;8.63;;;5.70;;
4375;SDS011;2202;50.866;12.750;2023-03-12T01:19:47;5.90;;;5.40;;
4375;SDS011;2202;50.866;12.750;2023-03-12T01:22:15;9.17;;;6.27;;
4375;SDS011;2202;50.866;12.750;2023-03-12T01:24:42;6.47;;;5.87;;
4375;SDS011;2202;50.866;12.750;2023-03-12T01:27:09;6.43;;;5.73;;
4375;SDS011;2202;50.866;12.750;2023-03-12T01:29:36;8.00;;;6.07;;
4375;SDS011;2202;50.866;12.750;2023-03-12T01:32:02;11.27;;;6.43;;
4375;SDS011;2202;50.866;12.750;2023-03-12T01:34:30;8.63;;;6.80;;
4375;SDS011;2202;50.866;12.750;2023-03-12T01:36:57;8.10;;;6.43;;
4375;SDS011;2202;50.866;12.750;2023-03-12T01:39:26;7.00;;;6.40;;
4375;SDS011;2202;50.866;12.750;2023-03-12T01:41:53;6.70;;;6.10;;
4375;SDS011;2202;50.866;12.750;2023-03-12T01:44:19;8.07;;;6.23;;
4375;SDS011;2202;50.866;12.750;2023-03-12T01:46:46;7.00;;;6.40;;
4375;SDS011;2202;50.866;12.750;2023-03-12T01:49:13;8.90;;;6.10;;
4375;SDS011;2202;50.866;12.750;2023-03-12T01:51:44;8.70;;;5.90;;
4375;SDS011;2202;50.866;12.750;2023-03-12T01:54:15;7.40;;;5.67;;
4375;SDS011;2202;50.866;12.750;2023-03-12T01:56:45;5.93;;;5.37;;
4375;SDS011;2202;50.866;12.750;2023-03-12T01:59:13;5.53;;;5.03;;
4375;SDS011;2202;50.866;12.750;2023-03-12T02:01:43;6.97;;;6.03;;
4375;SDS011;2202;50.866;12.750;2023-03-12T02:04:11;5.60;;;5.10;;
4375;SDS011;2202;50.866;12.750;2023-03-12T02:06:41;7.73;;;5.63;;
4375;SDS011;2202;50.866;12.750;2023-03-12T02:09:13;6.40;;;5.80;;
4375;SDS011;2202;50.866;12.750;2023-03-12T02:11:40;9.60;;;5.30;;
4375;SDS011;2202;50.866;12.750;2023-03-12T02:14:08;10.30;;;5.40;;
4375;SDS011;2202;50.866;12.750;2023-03-12T02:16:35;12.87;;;5.67;;
4375;SDS011;2202;50.866;12.750;2023-03-12T02:19:02;8.13;;;6.07;;
4375;SDS011;2202;50.866;12.750;2023-03-12T02:21:35;8.03;;;6.10;;
4375;SDS011;2202;50.866;12.750;2023-03-12T02:24:05;6.67;;;6.00;;
4375;SDS011;2202;50.866;12.750;2023-03-12T02:26:41;7.77;;;7.00;;
4375;SDS011;2202;50.866;12.750;2023-03-12T02:29:08;5.87;;;5.37;;
4375;SDS011;2202;50.866;12.750;2023-03-12T02:31:37;8.30;;;5.97;;
4375;SDS011;2202;50.866;12.750;2023-03-12T02:34:08;6.30;;;5.23;;
4375;SDS011;2202;50.866;12.750;2023-03-12T02:36:35;5.43;;;4.93;;
4375;SDS011;2202;50.866;12.750;2023-03-12T02:39:02;7.00;;;5.50;;
4375;SDS011;2202;50.866;12.750;2023-03-12T02:41:30;6.17;;;5.60;;
4375;SDS011;2202;50.866;12.750;2023-03-12T02:44:01;5.60;;;5.13;;
4375;SDS011;2202;50.866;12.750;2023-03-12T02:46:31;11.17;;;5.50;;
4375;SDS011;2202;50.866;12.750;2023-03-12T02:49:01;5.83;;;5.33;;
4375;SDS011;2202;50.866;12.750;2023-03-12T02:51:28;6.10;;;5.10;;
4375;SDS011;2202;50.866;12.750;2023-03-12T02:53:55;5.50;;;5.00;;
4375;SDS011;2202;50.866;12.750;2023-03-12T02:56:23;4.90;;;4.40;;
4375;SDS011;2202;50.866;12.750;2023-03-12T02:58:51;4.87;;;4.47;;
4375;SDS011;2202;50.866;12.750;2023-03-12T03:01:20;5.30;;;4.80;;
4375;SDS011;2202;50.866;12.750;2023-03-12T03:03:47;6.60;;;4.67;;
4375;SDS011;2202;50.866;12.750;2023-03-12T03:06:14;6.10;;;5.60;;
4375;SDS011;2202;50.866;12.750;2023-03-12T03:08:41;4.77;;;4.37;;
4375;SDS011;2202;50.866;12.750;2023-03-12T03:11:08;8.20;;;4.73;;
4375;SDS011;2202;50.866;12.750;2023-03-12T03:13:35;5.77;;;5.23;;
4375;SDS011;2202;50.866;12.750;2023-03-12T03:16:02;6.13;;;5.03;;
4375;SDS011;2202;50.866;12.750;2023-03-12T03:18:31;5.93;;;5.43;;
4375;SDS011;2202;50.866;12.750;2023-03-12T03:20:59;6.10;;;5.10;;
4375;SDS011;2202;50.866;12.750;2023-03-12T03:23:28;5.00;;;4.53;;
4375;SDS011;2202;50.866;12.750;2023-03-12T03:25:55;4.97;;;4.57;;
4375;SDS011;2202;50.866;12.750;2023-03-12T03:28:23;5.67;;;5.17;;
4375;SDS011;2202;50.866;12.750;2023-03-12T03:30:51;6.07;;;5.57;;
4375;SDS011;2202;50.866;12.750;2023-03-12T03:33:18;8.80;;;5.73;;
4375;SDS011;2202;50.866;12.750;2023-03-12T03:35:47;6.47;;;5.67;;
4375;SDS011;2202;50.866;12.750;2023-03-12T03:38:15;6.07;;;5.57;;
4375;SDS011;2202;50.866;12.750;2023-03-12T03:40:41;5.20;;;4.80;;
4375;SDS011;2202;50.866;12.750;2023-03-12T03:43:08;6.23;;;5.47;;
4375;SDS011;2202;50.866;12.750;2023-03-12T03:45:35;5.90;;;5.33;;
4375;SDS011;2202;50.866;12.750;2023-03-12T03:48:02;5.53;;;5.10;;
4375;SDS011;2202;50.866;12.750;2023-03-12T03:50:29;5.47;;;4.57;;
4375;SDS011;2202;50.866;12.750;2023-03-12T03:52:58;11.80;;;4.60;;
4375;SDS011;2202;50.866;12.750;2023-03-12T03:55:24;5.27;;;4.30;;
4375;SDS011;2202;50.866;12.750;2023-03-12T03:57:51;5.23;;;4.77;;
4375;SDS011;2202;50.866;12.750;2023-03-12T04:00:18;5.17;;;4.77;;
4375;SDS011;2202;50.866;12.750;2023-03-12T04:02:45;5.87;;;5.03;;
4375;SDS011;2202;50.866;12.750;2023-03-12T04:05:13;5.77;;;5.13;;
4375;SDS011;2202;50.866;12.750;2023-03-12T04:07:40;5.00;;;4.60;;
4375;SDS011;2202;50.866;12.750;2023-03-12T04:10:09;6.30;;;5.63;;
4375;SDS011;2202;50.866;12.750;2023-03-12T04:12:36;7.80;;;5.43;;
4375;SDS011;2202;50.866;12.750;2023-03-12T04:15:04;5.57;;;5.00;;
4375;SDS011;2202;50.866;12.750;2023-03-12T04:17:31;5.93;;;5.07;;
4375;SDS011;2202;50.866;12.750;2023-03-12T04:19:58;6.00;;;5.40;;
4375;SDS011;2202;50.866;12.750;2023-03-12T04:22:25;4.90;;;4.50;;
4375;SDS011;2202;50.866;12.750;2023-03-12T04:24:51;5.67;;;5.17;;
4375;SDS011;2202;50.866;12.750;2023-03-12T04:27:20;4.77;;;4.37;;
4375;SDS011;2202;50.866;12.750;2023-03-12T04:29:47;7.03;;;5.00;;
4375;SDS011;2202;50.866;12.750;2023-03-12T04:32:13;6.50;;;4.90;;
4375;SDS011;2202;50.866;12.750;2023-03-12T04:34:40;6.93;;;5.33;;
4375;SDS011;2202;50.866;12.750;2023-03-12T04:37:07;5.00;;;4.60;;
4375;SDS011;2202;50.866;12.750;2023-03-12T04:39:35;5.07;;;4.63;;
4375;SDS011;2202;50.866;12.750;2023-03-12T04:42:02;6.50;;;5.90;;
4375;SDS011;2202;50.866;12.750;2023-03-12T04:44:30;6.50;;;5.07;;
4375;SDS011;2202;50.866;12.750;2023-03-12T04:46:57;5.50;;;4.40;;
4375;SDS011;2202;50.866;12.750;2023-03-12T04:49:24;5.83;;;4.50;;
4375;SDS011;2202;50.866;12.750;2023-03-12T04:51:50;5.20;;;4.80;;
4375;SDS011;2202;50.866;12.750;2023-03-12T04:54:17;5.67;;;5.00;;
4375;SDS011;2202;50.866;12.750;2023-03-12T04:56:45;5.20;;;4.40;;
4375;SDS011;2202;50.866;12.750;2023-03-12T04:59:12;4.47;;;4.07;;
4375;SDS011;2202;50.866;12.750;2023-03-12T05:01:40;5.47;;;4.93;;
4375;SDS011;2202;50.866;12.750;2023-03-12T05:04:07;5.57;;;5.07;;
4375;SDS011;2202;50.866;12.750;2023-03-12T05:06:34;8.80;;;5.20;;
4375;SDS011;2202;50.866;12.750;2023-03-12T05:09:01;7.63;;;4.17;;
4375;SDS011;2202;50.866;12.750;2023-03-12T05:11:29;4.57;;;4.17;;
4375;SDS011;2202;50.866;12.750;2023-03-12T05:13:56;5.97;;;4.57;;
4375;SDS011;2202;50.866;12.750;2023-03-12T05:16:23;5.87;;;5.10;;
4375;SDS011;2202;50.866;12.750;2023-03-12T05:18:51;5.83;;;5.37;;
4375;SDS011;2202;50.866;12.750;2023-03-12T05:21:18;7.20;;;4.80;;
4375;SDS011;2202;50.866;12.750;2023-03-12T05:23:46;5.77;;;3.70;;
4375;SDS011;2202;50.866;12.750;2023-03-12T05:26:15;5.80;;;4.73;;
4375;SDS011;2202;50.866;12.750;2023-03-12T05:28:43;5.07;;;3.57;;
4375;SDS011;2202;50.866;12.750;2023-03-12T05:31:10;5.93;;;4.07;;
4375;SDS011;2202;50.866;12.750;2023-03-12T05:33:37;4.20;;;3.90;;
4375;SDS011;2202;50.866;12.750;2023-03-12T05:36:06;4.90;;;4.60;;
4375;SDS011;2202;50.866;12.750;2023-03-12T05:38:34;5.73;;;4.37;;
4375;SDS011;2202;50.866;12.750;2023-03-12T05:41:01;4.87;;;4.20;;
4375;SDS011;2202;50.866;12.750;2023-03-12T05:43:28;5.80;;;4.20;;
4375;SDS011;2202;50.866;12.750;2023-03-12T05:45:57;6.40;;;5.10;;
4375;SDS011;2202;50.866;12.750;2023-03-12T05:48:25;7.97;;;3.60;;
4375;SDS011;2202;50.866;12.750;2023-03-12T05:50:52;7.00;;;4.13;;
4375;SDS011;2202;50.866;12.750;2023-03-12T05:53:20;5.70;;;4.57;;
4375;SDS011;2202;50.866;12.750;2023-03-12T05:55:47;8.23;;;5.00;;
4375;SDS011;2202;50.866;12.750;2023-03-12T05:58:13;6.93;;;4.13;;
4375;SDS011;2202;50.866;12.750;2023-03-12T06:00:41;5.93;;;5.43;;
4375;SDS011;2202;50.866;12.750;2023-03-12T06:03:08;7.83;;;5.40;;
4375;SDS011;2202;50.866;12.750;2023-03-12T06:05:35;5.23;;;4.80;;
4375;SDS011;2202;50.866;12.750;2023-03-12T06:08:03;4.97;;;4.50;;
4375;SDS011;2202;50.866;12.750;2023-03-12T06:10:31;4.30;;;4.00;;
4375;SDS011;2202;50.866;12.750;2023-03-12T06:12:58;5.70;;;5.23;;
4375;SDS011;2202;50.866;12.750;2023-03-12T06:15:25;4.40;;;4.00;;
4375;SDS011;2202;50.866;12.750;2023-03-12T06:17:52;4.67;;;4.20;;
4375;SDS011;2202;50.866;12.750;2023-03-12T06:20:19;5.13;;;3.80;;
4375;SDS011;2202;50.866;12.750;2023-03-12T06:22:46;11.57;;;4.47;;
4375;SDS011;2202;50.866;12.750;2023-03-12T06:25:12;5.80;;;3.50;;
4375;SDS011;2202;50.866;12.750;2023-03-12T06:27:41;3.93;;;3.60;;
4375;SDS011;2202;50.866;12.750;2023-03-12T06:30:08;5.20;;;4.40;;
4375;SDS011;2202;50.866;12.750;2023-03-12T06:32:35;6.50;;;3.83;;
4375;SDS011;2202;50.866;12.750;2023-03-12T06:35:02;4.80;;;4.30;;
4375;SDS011;2202;50.866;12.750;2023-03-12T06:37:30;4.60;;;4.20;;
4375;SDS011;2202;50.866;12.750;2023-03-12T06:39:56;8.03;;;4.70;;
4375;SDS011;2202;50.866;12.750;2023-03-12T06:42:23;4.00;;;3.67;;
4375;SDS011;2202;50.866;12.750;2023-03-12T06:44:52;5.90;;;4.17;;
4375;SDS011;2202;50.866;12.750;2023-03-12T06:47:19;5.27;;;4.47;;
4375;SDS011;2202;50.866;12.750;2023-03-12T06:49:46;4.70;;;4.30;;
4375;SDS011;2202;50.866;12.750;2023-03-12T06:52:12;6.13;;;3.77;;
4375;SDS011;2202;50.866;12.750;2023-03-12T06:54:39;4.87;;;3.87;;
4375;SDS011;2202;50.866;12.750;2023-03-12T06:57:06;3.63;;;3.33;;
4375;SDS011;2202;50.866;12.750;2023-03-12T06:59:33;5.27;;;3.40;;
4375;SDS011;2202;50.866;12.750;2023-03-12T07:02:01;3.70;;;3.40;;
4375;SDS011;2202;50.866;12.750;2023-03-12T07:04:28;2.93;;;2.63;;
4375;SDS011;2202;50.866;12.750;2023-03-12T07:06:55;3.40;;;3.13;;
4375;SDS011;2202;50.866;12.750;2023-03-12T07:09:22;3.90;;;3.00;;
4375;SDS011;2202;50.866;12.750;2023-03-12T07:11:48;4.93;;;3.40;;
4375;SDS011;2202;50.866;12.750;2023-03-12T07:14:15;3.77;;;3.47;;
4375;SDS011;2202;50.866;12.750;2023-03-12T07:16:44;5.10;;;3.00;;
4375;SDS011;2202;50.866;12.750;2023-03-12T07:19:12;4.33;;;3.83;;
4375;SDS011;2202;50.866;12.750;2023-03-12T07:21:39;7.23;;;4.53;;
4375;SDS011;2202;50.866;12.750;2023-03-12T07:24:06;7.60;;;3.97;;
4375;SDS011;2202;50.866;12.750;2023-03-12T07:26:34;4.53;;;3.80;;
4375;SDS011;2202;50.866;12.750;2023-03-12T07:29:01;5.17;;;3.70;;
4375;SDS011;2202;50.866;12.750;2023-03-12T07:31:29;5.23;;;3.37;;
4375;SDS011;2202;50.866;12.750;2023-03-12T07:33:56;4.07;;;3.70;;
4375;SDS011;2202;50.866;12.750;2023-03-12T07:36:24;4.73;;;4.10;;
4375;SDS011;2202;50.866;12.750;2023-03-12T07:38:51;3.53;;;3.23;;
4375;SDS011;2202;50.866;12.750;2023-03-12T07:41:18;3.33;;;3.03;;
4375;SDS011;2202;50.866;12.750;2023-03-12T07:43:45;5.00;;;3.10;;
4375;SDS011;2202;50.866;12.750;2023-03-12T07:46:11;4.27;;;3.83;;
4375;SDS011;2202;50.866;12.750;2023-03-12T07:48:38;5.60;;;3.80;;
4375;SDS011;2202;50.866;12.750;2023-03-12T07:51:05;4.93;;;3.33;;
4375;SDS011;2202;50.866;12.750;2023-03-12T07:53:33;4.10;;;3.70;;
4375;SDS011;2202;50.866;12.750;2023-03-12T07:56:00;4.67;;;3.77;;
4375;SDS011;2202;50.866;12.750;2023-03-12T07:58:27;3.73;;;3.40;;
4375;SDS011;2202;50.866;12.750;2023-03-12T08:00:54;4.10;;;3.77;;
4375;SDS011;2202;50.866;12.750;2023-03-12T08:03:21;7.73;;;4.20;;
4375;SDS011;2202;50.866;12.750;2023-03-12T08:05:55;4.43;;;4.00;;
4375;SDS011;2202;50.866;12.750;2023-03-12T08:08:24;3.70;;;3.30;;
4375;SDS011;2202;50.866;12.750;2023-03-12T08:10:52;5.20;;;3.20;;
4375;SDS011;2202;50.866;12.750;2023-03-12T08:13:19;9.83;;;3.20;;
4375;SDS011;2202;50.866;12.750;2023-03-12T08:15:47;3.10;;;2.80;;
4375;SDS011;2202;50.866;12.750;2023-03-12T08:18:14;4.97;;;2.77;;
4375;SDS011;2202;50.866;12.750;2023-03-12T08:20:41;4.17;;;3.57;;
4375;SDS011;2202;50.866;12.750;2023-03-12T08:23:08;3.17;;;2.57;;
4375;SDS011;2202;50.866;12.750;2023-03-12T08:25:35;5.63;;;3.20;;
4375;SDS011;2202;50.866;12.750;2023-03-12T08:28:04;3.67;;;3.37;;
4375;SDS011;2202;50.866;12.750;2023-03-12T08:30:31;3.50;;;3.20;;
4375;SDS011;2202;50.866;12.750;2023-03-12T08:32:58;3.90;;;3.60;;
4375;SDS011;2202;50.866;12.750;2023-03-12T08:35:25;4.53;;;3.50;;
4375;SDS011;2202;50.866;12.750;2023-03-12T08:37:52;5.80;;;3.13;;
4375;SDS011;2202;50.866;12.750;2023-03-12T08:40:21;3.60;;;3.17;;
4375;SDS011;2202;50.866;12.750;2023-03-12T08:42:48;5.83;;;3.73;;
4375;SDS011;2202;50.866;12.750;2023-03-12T08:45:16;3.80;;;3.50;;
4375;SDS011;2202;50.866;12.750;2023-03-12T08:47:43;3.47;;;3.17;;
4375;SDS011;2202;50.866;12.750;2023-03-12T08:50:11;7.40;;;3.47;;
4375;SDS011;2202;50.866;12.750;2023-03-12T08:52:40;5.30;;;3.40;;
4375;SDS011;2202;50.866;12.750;2023-03-12T08:55:07;4.00;;;3.60;;
4375;SDS011;2202;50.866;12.750;2023-03-12T08:57:35;4.20;;;3.83;;
4375;SDS011;2202;50.866;12.750;2023-03-12T09:00:02;6.10;;;4.30;;
4375;SDS011;2202;50.866;12.750;2023-03-12T09:02:33;4.77;;;3.70;;
4375;SDS011;2202;50.866;12.750;2023-03-12T09:05:00;6.40;;;4.17;;
4375;SDS011;2202;50.866;12.750;2023-03-12T09:07:27;4.20;;;3.90;;
4375;SDS011;2202;50.866;12.750;2023-03-12T09:09:55;5.10;;;4.53;;
4375;SDS011;2202;50.866;12.750;2023-03-12T09:12:22;4.43;;;4.03;;
4375;SDS011;2202;50.866;12.750;2023-03-12T09:14:50;4.97;;;4.10;;
4375;SDS011;2202;50.866;12.750;2023-03-12T09:17:17;3.90;;;3.47;;
4375;SDS011;2202;50.866;12.750;2023-03-12T09:19:45;3.60;;;3.30;;
4375;SDS011;2202;50.866;12.750;2023-03-12T09:22:12;8.57;;;3.50;;
4375;SDS011;2202;50.866;12.750;2023-03-12T09:24:39;4.67;;;4.17;;
4375;SDS011;2202;50.866;12.750;2023-03-12T09:27:06;4.83;;;3.90;;
4375;SDS011;2202;50.866;12.750;2023-03-12T09:29:33;3.60;;;3.30;;
4375;SDS011;2202;50.866;12.750;2023-03-12T09:32:00;5.60;;;4.00;;
4375;SDS011;2202;50.866;12.750;2023-03-12T09:34:27;4.60;;;4.20;;
4375;SDS011;2202;50.866;12.750;2023-03-12T09:36:55;6.00;;;4.80;;
4375;SDS011;2202;50.866;12.750;2023-03-12T09:39:22;5.10;;;4.17;;
4375;SDS011;2202;50.866;12.750;2023-03-12T09:41:49;4.57;;;4.00;;
4375;SDS011;2202;50.866;12.750;2023-03-12T09:44:16;4.27;;;3.87;;
4375;SDS011;2202;50.866;12.750;2023-03-12T09:46:48;4.60;;;3.77;;
4375;SDS011;2202;50.866;12.750;2023-03-12T09:49:19;5.63;;;4.30;;
4375;SDS011;2202;50.866;12.750;2023-03-12T09:51:57;5.33;;;4.40;;
4375;SDS011;2202;50.866;12.750;2023-03-12T09:54:27;4.90;;;4.50;;
4375;SDS011;2202;50.866;12.750;2023-03-12T09:56:59;4.90;;;4.50;;
4375;SDS011;2202;50.866;12.750;2023-03-12T09:59:33;5.17;;;4.67;;
4375;SDS011;2202;50.866;12.750;2023-03-12T10:02:01;6.20;;;4.97;;
4375;SDS011;2202;50.866;12.750;2023-03-12T10:04:40;6.20;;;4.80;;
4375;SDS011;2202;50.866;12.750;2023-03-12T10:07:11;4.47;;;4.00;;
4375;SDS011;2202;50.866;12.750;2023-03-12T10:09:53;5.50;;;4.60;;
4375;SDS011;2202;50.866;12.750;2023-03-12T10:12:45;9.53;;;5.13;;
4375;SDS011;2202;50.866;12.750;2023-03-12T10:15:26;12.47;;;6.63;;
4375;SDS011;2202;50.866;12.750;2023-03-12T10:18:03;5.93;;;4.90;;
4375;SDS011;2202;50.866;12.750;2023-03-12T10:20:45;15.33;;;5.77;;
4375;SDS011;2202;50.866;12.750;2023-03-12T10:23:21;5.53;;;5.00;;
4375;SDS011;2202;50.866;12.750;2023-03-12T10:25:56;5.57;;;5.03;;
4375;SDS011;2202;50.866;12.750;2023-03-12T10:28:27;5.87;;;4.83;;
4375;SDS011;2202;50.866;12.750;2023-03-12T10:31:00;5.70;;;5.20;;
4375;SDS011;2202;50.866;12.750;2023-03-12T10:33:34;6.23;;;5.00;;
4375;SDS011;2202;50.866;12.750;2023-03-12T10:36:15;5.40;;;4.90;;
4375;SDS011;2202;50.866;12.750;2023-03-12T10:38:45;6.17;;;4.67;;
4375;SDS011;2202;50.866;12.750;2023-03-12T10:41:14;4.93;;;4.43;;
4375;SDS011;2202;50.866;12.750;2023-03-12T10:43:42;10.20;;;5.10;;
4375;SDS011;2202;50.866;12.750;2023-03-12T10:46:16;6.40;;;4.33;;
4375;SDS011;2202;50.866;12.750;2023-03-12T10:49:21;5.73;;;4.50;;
4375;SDS011;2202;50.866;12.750;2023-03-12T10:51:54;7.63;;;5.23;;
4375;SDS011;2202;50.866;12.750;2023-03-12T10:54:26;5.17;;;4.60;;
4375;SDS011;2202;50.866;12.750;2023-03-12T10:56:55;6.63;;;4.50;;
4375;SDS011;2202;50.866;12.750;2023-03-12T10:59:24;4.00;;;3.70;;
4375;SDS011;2202;50.866;12.750;2023-03-12T11:01:54;5.10;;;4.40;;
4375;SDS011;2202;50.866;12.750;2023-03-12T11:04:22;5.03;;;4.40;;
4375;SDS011;2202;50.866;12.750;2023-03-12T11:07:02;5.10;;;3.67;;
4375;SDS011;2202;50.866;12.750;2023-03-12T11:09:45;7.70;;;4.53;;
4375;SDS011;2202;50.866;12.750;2023-03-12T11:12:39;5.70;;;5.30;;
4375;SDS011;2202;50.866;12.750;2023-03-12T11:15:20;4.07;;;3.73;;
4375;SDS011;2202;50.866;12.750;2023-03-12T11:17:48;3.60;;;3.30;;
4375;SDS011;2202;50.866;12.750;2023-03-12T11:20:23;3.67;;;3.43;;
4375;SDS011;2202;50.866;12.750;2023-03-12T11:22:51;6.43;;;3.57;;
4375;SDS011;2202;50.866;12.750;2023-03-12T11:25:23;4.70;;;4.30;;
4375;SDS011;2202;50.866;12.750;2023-03-12T11:27:53;4.17;;;3.80;;
4375;SDS011;2202;50.866;12.750;2023-03-12T11:30:22;3.63;;;3.33;;
4375;SDS011;2202;50.866;12.750;2023-03-12T11:32:54;7.60;;;4.67;;
4375;SDS011;2202;50.866;12.750;2023-03-12T11:35:25;4.20;;;3.90;;
4375;SDS011;2202;50.866;12.750;2023-03-12T11:38:00;4.27;;;3.90;;
4375;SDS011;2202;50.866;12.750;2023-03-12T11:40:36;6.70;;;4.13;;
4375;SDS011;2202;50.866;12.750;2023-03-12T11:43:21;4.87;;;3.90;;
4375;SDS011;2202;50.866;12.750;2023-03-12T11:46:10;5.80;;;4.33;;
4375;SDS011;2202;50.866;12.750;2023-03-12T11:48:48;3.67;;;3.30;;
4375;SDS011;2202;50.866;12.750;2023-03-12T11:51:27;4.37;;;3.97;;
4375;SDS011;2202;50.866;12.750;2023-03-12T11:56:59;6.10;;;3.57;;
4375;SDS011;2202;50.866;12.750;2023-03-12T11:59:38;4.33;;;3.60;;
4375;SDS011;2202;50.866;12.750;2023-03-12T12:02:20;4.03;;;3.73;;
4375;SDS011;2202;50.866;12.750;2023-03-12T12:05:02;4.70;;;3.80;;
4375;SDS011;2202;50.866;12.750;2023-03-12T12:07:47;5.00;;;4.40;;
4375;SDS011;2202;50.866;12.750;2023-03-12T12:10:30;3.83;;;3.43;;
4375;SDS011;2202;50.866;12.750;2023-03-12T12:13:09;4.73;;;3.50;;
4375;SDS011;2202;50.866;12.750;2023-03-12T12:15:42;8.07;;;4.57;;
4375;SDS011;2202;50.866;12.750;2023-03-12T12:18:25;7.77;;;4.37;;
4375;SDS011;2202;50.866;12.750;2023-03-12T12:21:05;5.23;;;4.07;;
4375;SDS011;2202;50.866;12.750;2023-03-12T12:23:44;5.60;;;4.80;;
4375;SDS011;2202;50.866;12.750;2023-03-12T12:26:16;4.53;;;4.03;;
4375;SDS011;2202;50.866;12.750;2023-03-12T12:28:55;4.97;;;3.97;;
4375;SDS011;2202;50.866;12.750;2023-03-12T12:31:36;3.83;;;3.40;;
4375;SDS011;2202;50.866;12.750;2023-03-12T12:34:22;5.17;;;3.67;;
4375;SDS011;2202;50.866;12.750;2023-03-12T12:37:06;6.17;;;4.07;;
4375;SDS011;2202;50.866;12.750;2023-03-12T12:39:46;4.60;;;3.40;;
4375;SDS011;2202;50.866;12.750;2023-03-12T12:42:20;5.13;;;4.10;;
4375;SDS011;2202;50.866;12.750;2023-03-12T12:44:52;4.30;;;3.57;;
4375;SDS011;2202;50.866;12.750;2023-03-12T12:47:25;3.97;;;3.63;;
4375;SDS011;2202;50.866;12.750;2023-03-12T12:50:00;5.40;;;3.33;;
4375;SDS011;2202;50.866;12.750;2023-03-12T12:52:28;4.90;;;4.40;;
4375;SDS011;2202;50.866;12.750;2023-03-12T12:54:57;3.97;;;3.63;;
4375;SDS011;2202;50.866;12.750;2023-03-12T12:57:28;4.27;;;3.87;;
4375;SDS011;2202;50.866;12.750;2023-03-12T13:00:10;5.40;;;3.20;;
4375;SDS011;2202;50.866;12.750;2023-03-12T13:02:46;4.17;;;3.60;;
4375;SDS011;2202;50.866;12.750;2023-03-12T13:05:19;10.30;;;3.43;;
4375;SDS011;2202;50.866;12.750;2023-03-12T13:07:50;3.83;;;3.30;;
4375;SDS011;2202;50.866;12.750;2023-03-12T13:13:10;4.33;;;3.27;;
4375;SDS011;2202;50.866;12.750;2023-03-12T13:15:44;3.40;;;3.10;;
4375;SDS011;2202;50.866;12.750;2023-03-12T13:18:22;3.50;;;2.87;;
4375;SDS011;2202;50.866;12.750;2023-03-12T13:21:05;5.50;;;3.50;;
4375;SDS011;2202;50.866;12.750;2023-03-12T13:23:42;4.50;;;3.70;;
4375;SDS011;2202;50.866;12.750;2023-03-12T13:26:17;8.53;;;4.17;;
4375;SDS011;2202;50.866;12.750;2023-03-12T13:29:03;3.53;;;3.23;;
4375;SDS011;2202;50.866;12.750;2023-03-12T13:31:46;6.13;;;4.93;;
4375;SDS011;2202;50.866;12.750;2023-03-12T13:37:20;5.73;;;5.23;;
4375;SDS011;2202;50.866;12.750;2023-03-12T13:39:57;16.20;;;9.87;;
4375;SDS011;2202;50.866;12.750;2023-03-12T13:42:37;11.70;;;8.90;;
4375;SDS011;2202;50.866;12.750;2023-03-12T13:45:22;14.37;;;11.50;;
4375;SDS011;2202;50.866;12.750;2023-03-12T13:47:52;18.03;;;11.27;;
4375;SDS011;2202;50.866;12.750;2023-03-12T13:50:23;6.90;;;6.03;;
4375;SDS011;2202;50.866;12.750;2023-03-12T13:52:54;5.53;;;5.03;;
4375;SDS011;2202;50.866;12.750;2023-03-12T13:55:28;5.20;;;4.70;;
4375;SDS011;2202;50.866;12.750;2023-03-12T13:57:58;5.77;;;5.27;;
4375;SDS011;2202;50.866;12.750;2023-03-12T14:00:30;8.03;;;5.20;;
4375;SDS011;2202;50.866;12.750;2023-03-12T14:03:05;12.50;;;6.23;;
4375;SDS011;2202;50.866;12.750;2023-03-12T14:05:43;5.17;;;4.40;;
4375;SDS011;2202;50.866;12.750;2023-03-12T14:08:32;5.80;;;5.30;;
4375;SDS011;2202;50.866;12.750;2023-03-12T14:14:23;6.10;;;5.47;;
4375;SDS011;2202;50.866;12.750;2023-03-12T14:17:13;11.87;;;4.47;;
4375;SDS011;2202;50.866;12.750;2023-03-12T14:19:46;5.07;;;4.67;;
4375;SDS011;2202;50.866;12.750;2023-03-12T14:22:16;11.80;;;8.23;;
4375;SDS011;2202;50.866;12.750;2023-03-12T14:24:47;29.17;;;19.60;;
4375;SDS011;2202;50.866;12.750;2023-03-12T14:27:17;22.00;;;15.63;;
4375;SDS011;2202;50.866;12.750;2023-03-12T14:29:47;10.07;;;6.67;;
4375;SDS011;2202;50.866;12.750;2023-03-12T14:32:21;6.60;;;5.97;;
4375;SDS011;2202;50.866;12.750;2023-03-12T14:34:52;13.30;;;10.70;;
4375;SDS011;2202;50.866;12.750;2023-03-12T14:37:24;12.57;;;10.23;;
4375;SDS011;2202;50.866;12.750;2023-03-12T14:39:57;10.03;;;9.13;;
4375;SDS011;2202;50.866;12.750;2023-03-12T14:42:27;9.60;;;8.53;;
4375;SDS011;2202;50.866;12.750;2023-03-12T14:44:56;8.63;;;6.43;;
4375;SDS011;2202;50.866;12.750;2023-03-12T14:47:25;5.90;;;5.30;;
4375;SDS011;2202;50.866;12.750;2023-03-12T14:49:54;7.10;;;6.40;;
4375;SDS011;2202;50.866;12.750;2023-03-12T14:52:23;6.80;;;5.70;;
4375;SDS011;2202;50.866;12.750;2023-03-12T14:54:52;9.57;;;5.83;;
4375;SDS011;2202;50.866;12.750;2023-03-12T14:57:19;9.27;;;5.67;;
4375;SDS011;2202;50.866;12.750;2023-03-12T14:59:50;5.33;;;4.80;;
4375;SDS011;2202;50.866;12.750;2023-03-12T15:02:18;8.20;;;6.80;;
4375;SDS011;2202;50.866;12.750;2023-03-12T15:04:46;6.00;;;5.37;;
4375;SDS011;2202;50.866;12.750;2023-03-12T15:07:16;6.20;;;5.60;;
4375;SDS011;2202;50.866;12.750;2023-03-12T15:09:47;7.40;;;6.70;;
4375;SDS011;2202;50.866;12.750;2023-03-12T15:12:17;7.10;;;5.47;;
4375;SDS011;2202;50.866;12.750;2023-03-12T15:14:46;7.40;;;6.07;;
4375;SDS011;2202;50.866;12.750;2023-03-12T15:17:16;7.50;;;6.70;;
4375;SDS011;2202;50.866;12.750;2023-03-12T15:19:44;6.80;;;5.80;;
4375;SDS011;2202;50.866;12.750;2023-03-12T15:22:14;7.63;;;6.60;;
4375;SDS011;2202;50.866;12.750;2023-03-12T15:24:44;7.20;;;5.20;;
4375;SDS011;2202;50.866;12.750;2023-03-12T15:27:20;7.00;;;5.70;;
4375;SDS011;2202;50.866;12.750;2023-03-12T15:29:55;6.23;;;5.20;;